createdAt,value
2022-10-15T00:00:49.486Z,16.09
2022-10-15T00:03:16.011Z,16.11
2022-10-15T00:05:42.442Z,16.11
2022-10-15T00:08:10.421Z,16.08
2022-10-15T00:10:37.306Z,16.08
2022-10-15T00:13:04.941Z,16.09
2022-10-15T00:15:31.411Z,16.07
2022-10-15T00:17:58.307Z,16.07
2022-10-15T00:20:24.739Z,16.06
2022-10-15T00:22:51.218Z,16.05
2022-10-15T00:25:17.690Z,16.04
2022-10-15T00:27:44.108Z,16.03
2022-10-15T00:30:10.925Z,16.03
2022-10-15T00:32:37.408Z,16.00
2022-10-15T00:35:04.082Z,16.02
2022-10-15T00:37:30.478Z,16.00
2022-10-15T00:39:56.905Z,15.99
2022-10-15T00:42:23.695Z,15.97
2022-10-15T00:45:00.367Z,15.96
2022-10-15T00:47:39.512Z,15.94
2022-10-15T00:50:08.872Z,15.91
2022-10-15T00:52:53.543Z,15.90
2022-10-15T00:55:32.029Z,15.87
2022-10-15T00:58:02.088Z,15.86
2022-10-15T01:00:28.701Z,15.86
2022-10-15T01:02:55.128Z,15.86
2022-10-15T01:05:22.070Z,15.84
2022-10-15T01:07:48.478Z,15.84
2022-10-15T01:10:15.641Z,15.83
2022-10-15T01:12:54.094Z,15.83
2022-10-15T01:15:30.410Z,15.83
2022-10-15T01:18:05.401Z,15.82
2022-10-15T01:21:09.520Z,15.79
2022-10-15T01:24:14.465Z,15.78
2022-10-15T01:27:09.099Z,15.76
2022-10-15T01:29:52.977Z,15.76
2022-10-15T01:32:37.231Z,15.76
2022-10-15T01:35:12.377Z,15.75
2022-10-15T01:37:55.886Z,15.73
2022-10-15T01:40:38.512Z,15.72
2022-10-15T01:43:09.738Z,15.71
2022-10-15T01:45:40.684Z,15.70
2022-10-15T01:48:09.668Z,15.68
2022-10-15T01:50:38.980Z,15.68
2022-10-15T01:53:06.403Z,15.67
2022-10-15T01:55:33.263Z,15.66
2022-10-15T01:58:00.348Z,15.66
2022-10-15T02:00:26.849Z,15.65
2022-10-15T02:02:53.249Z,15.66
2022-10-15T02:05:27.673Z,15.65
2022-10-15T02:08:12.119Z,15.64
2022-10-15T02:13:20.697Z,15.64
2022-10-15T02:16:08.840Z,15.61
2022-10-15T02:18:42.353Z,15.62
2022-10-15T02:21:11.674Z,15.61
2022-10-15T02:23:59.240Z,15.59
2022-10-15T02:26:28.292Z,15.59
2022-10-15T02:28:57.496Z,15.58
2022-10-15T02:31:25.909Z,15.57
2022-10-15T02:33:54.951Z,15.55
2022-10-15T02:36:22.010Z,15.54
2022-10-15T02:38:49.390Z,15.53
2022-10-15T02:41:16.117Z,15.51
2022-10-15T02:43:42.712Z,15.51
2022-10-15T02:46:10.535Z,15.49
2022-10-15T02:48:36.949Z,15.51
2022-10-15T02:51:04.690Z,15.49
2022-10-15T02:53:31.117Z,15.48
2022-10-15T02:55:57.551Z,15.47
2022-10-15T02:58:24.715Z,15.47
2022-10-15T03:00:51.220Z,15.46
2022-10-15T03:03:17.706Z,15.46
2022-10-15T03:05:44.289Z,15.44
2022-10-15T03:08:10.683Z,15.44
2022-10-15T03:10:37.105Z,15.43
2022-10-15T03:13:05.050Z,15.43
2022-10-15T03:15:31.539Z,15.42
2022-10-15T03:17:57.957Z,15.40
2022-10-15T03:20:24.683Z,15.40
2022-10-15T03:22:51.110Z,15.38
2022-10-15T03:25:17.508Z,15.38
2022-10-15T03:27:43.927Z,15.38
2022-10-15T03:30:10.761Z,15.37
2022-10-15T03:32:37.226Z,15.38
2022-10-15T03:35:03.846Z,15.38
2022-10-15T03:37:30.255Z,15.38
2022-10-15T03:39:56.654Z,15.38
2022-10-15T03:42:23.618Z,15.38
2022-10-15T03:44:50.152Z,15.38
2022-10-15T03:47:16.565Z,15.39
2022-10-15T03:49:42.964Z,15.37
2022-10-15T03:52:09.384Z,15.38
2022-10-15T03:54:35.856Z,15.38
2022-10-15T03:57:02.271Z,15.36
2022-10-15T03:59:28.765Z,15.38
2022-10-15T04:01:55.183Z,15.38
2022-10-15T04:04:21.583Z,15.38
2022-10-15T04:06:48.070Z,15.37
2022-10-15T04:09:14.839Z,15.38
2022-10-15T04:11:41.619Z,15.37
2022-10-15T04:14:08.056Z,15.38
2022-10-15T04:16:34.569Z,15.39
2022-10-15T04:19:01.015Z,15.38
2022-10-15T04:21:27.448Z,15.39
2022-10-15T04:23:53.850Z,15.37
2022-10-15T04:26:20.297Z,15.38
2022-10-15T04:28:48.631Z,15.38
2022-10-15T04:31:15.548Z,15.38
2022-10-15T04:33:41.941Z,15.37
2022-10-15T04:36:12.859Z,15.37
2022-10-15T04:38:39.372Z,15.36
2022-10-15T04:41:08.410Z,15.35
2022-10-15T04:43:35.475Z,15.35
2022-10-15T04:46:03.812Z,15.35
2022-10-15T04:48:31.444Z,15.34
2022-10-15T04:51:18.078Z,15.33
2022-10-15T04:53:44.794Z,15.32
2022-10-15T04:56:15.342Z,15.32
2022-10-15T04:58:42.561Z,15.31
2022-10-15T05:01:12.164Z,15.30
2022-10-15T05:03:41.113Z,15.30
2022-10-15T05:06:14.138Z,15.31
2022-10-15T05:08:43.461Z,15.30
2022-10-15T05:11:13.560Z,15.29
2022-10-15T05:13:40.062Z,15.27
2022-10-15T05:16:13.889Z,15.27
2022-10-15T05:18:41.217Z,15.25
2022-10-15T05:21:08.107Z,15.25
2022-10-15T05:23:34.735Z,15.23
2022-10-15T05:26:04.770Z,15.24
2022-10-15T05:28:31.511Z,15.24
2022-10-15T05:31:04.546Z,15.23
2022-10-15T05:33:31.053Z,15.23
2022-10-15T05:35:57.506Z,15.23
2022-10-15T05:38:24.464Z,15.23
2022-10-15T05:40:50.865Z,15.22
2022-10-15T05:43:17.266Z,15.21
2022-10-15T05:45:43.720Z,15.22
2022-10-15T05:48:10.139Z,15.23
2022-10-15T05:50:36.563Z,15.23
2022-10-15T05:53:02.987Z,15.23
2022-10-15T05:55:30.130Z,15.23
2022-10-15T05:58:01.071Z,15.24
2022-10-15T06:00:27.479Z,15.23
2022-10-15T06:05:25.303Z,15.26
2022-10-15T06:07:51.804Z,15.25
2022-10-15T06:10:18.373Z,15.26
2022-10-15T06:12:50.048Z,15.26
2022-10-15T06:15:17.086Z,15.28
2022-10-15T06:17:43.471Z,15.28
2022-10-15T06:20:11.135Z,15.29
2022-10-15T06:25:09.451Z,15.30
2022-10-15T06:27:35.867Z,15.31
2022-10-15T06:30:02.492Z,15.32
2022-10-15T06:32:28.891Z,15.31
2022-10-15T06:34:55.309Z,15.33
2022-10-15T06:37:22.010Z,15.34
2022-10-15T06:39:48.752Z,15.35
2022-10-15T06:42:15.335Z,15.38
2022-10-15T06:44:41.776Z,15.37
2022-10-15T06:47:08.235Z,15.38
2022-10-15T06:49:34.694Z,15.40
2022-10-15T06:52:03.831Z,15.43
2022-10-15T06:54:30.471Z,15.46
2022-10-15T06:56:56.904Z,15.50
2022-10-15T06:59:23.420Z,15.53
2022-10-15T07:01:49.851Z,15.56
2022-10-15T07:04:16.250Z,15.57
2022-10-15T07:06:42.807Z,15.60
2022-10-15T07:09:09.223Z,15.64
2022-10-15T07:11:35.648Z,15.67
2022-10-15T07:14:02.554Z,15.70
2022-10-15T07:16:29.010Z,15.73
2022-10-15T07:18:55.462Z,15.76
2022-10-15T07:21:21.916Z,15.80
2022-10-15T07:23:48.350Z,15.81
2022-10-15T07:26:14.806Z,15.84
2022-10-15T07:28:41.359Z,15.87
2022-10-15T07:31:08.534Z,15.88
2022-10-15T07:33:35.059Z,15.90
2022-10-15T07:36:06.226Z,15.94
2022-10-15T07:38:36.162Z,15.97
2022-10-15T07:41:03.897Z,15.98
2022-10-15T07:43:30.596Z,16.03
2022-10-15T07:45:57.019Z,16.06
2022-10-15T07:48:23.568Z,16.09
2022-10-15T07:51:02.515Z,16.13
2022-10-15T07:53:29.048Z,16.18
2022-10-15T07:55:59.831Z,16.20
2022-10-15T07:58:26.327Z,16.24
2022-10-15T08:00:53.083Z,16.28
2022-10-15T08:03:19.488Z,16.34
2022-10-15T08:05:45.906Z,16.38
2022-10-15T08:08:12.302Z,16.41
2022-10-15T08:10:38.728Z,16.44
2022-10-15T08:13:05.140Z,16.48
2022-10-15T08:15:31.549Z,16.52
2022-10-15T08:17:59.381Z,16.57
2022-10-15T08:20:25.812Z,16.61
2022-10-15T08:22:52.230Z,16.67
2022-10-15T08:25:18.673Z,16.70
2022-10-15T08:27:45.058Z,16.74
2022-10-15T08:30:11.470Z,16.78
2022-10-15T08:32:37.864Z,16.82
2022-10-15T08:35:04.416Z,16.86
2022-10-15T08:37:30.829Z,16.90
2022-10-15T08:39:57.228Z,16.93
2022-10-15T08:42:32.595Z,16.97
2022-10-15T08:45:02.570Z,17.00
2022-10-15T08:47:34.798Z,17.05
2022-10-15T08:50:04.738Z,17.11
2022-10-15T08:52:47.118Z,17.13
2022-10-15T08:55:16.272Z,17.18
2022-10-15T08:58:08.161Z,17.26
2022-10-15T09:00:40.527Z,17.31
2022-10-15T09:03:09.889Z,17.36
2022-10-15T09:05:46.587Z,17.40
2022-10-15T09:08:28.789Z,17.44
2022-10-15T09:10:59.376Z,17.47
2022-10-15T09:13:28.600Z,17.52
2022-10-15T09:16:05.842Z,17.56
2022-10-15T09:18:34.417Z,17.58
2022-10-15T09:21:02.290Z,17.62
2022-10-15T09:23:32.153Z,17.67
2022-10-15T09:26:23.384Z,17.69
2022-10-15T09:29:14.404Z,17.75
2022-10-15T09:31:48.184Z,17.78
2022-10-15T09:34:26.847Z,17.81
2022-10-15T09:37:08.022Z,17.81
2022-10-15T09:39:47.821Z,17.87
2022-10-15T09:42:32.244Z,17.92
2022-10-15T09:45:05.996Z,17.94
2022-10-15T09:47:34.553Z,18.00
2022-10-15T09:50:01.743Z,18.01
2022-10-15T09:52:40.322Z,18.08
2022-10-15T09:55:34.451Z,18.09
2022-10-15T09:58:08.803Z,18.15
2022-10-15T10:00:59.520Z,18.21
2022-10-15T10:03:28.337Z,18.24
2022-10-15T10:06:04.075Z,18.27
2022-10-15T10:09:00.908Z,18.28
2022-10-15T10:11:27.601Z,18.31
2022-10-15T10:13:56.409Z,18.34
2022-10-15T10:16:23.580Z,18.34
2022-10-15T10:19:12.500Z,18.41
2022-10-15T10:21:42.064Z,18.45
2022-10-15T10:24:34.430Z,18.51
2022-10-15T10:27:02.228Z,18.57
2022-10-15T10:29:33.962Z,18.66
2022-10-15T10:32:10.641Z,18.75
2022-10-15T10:34:37.310Z,18.79
2022-10-15T10:37:04.647Z,18.85
2022-10-15T10:39:32.551Z,18.91
2022-10-15T10:42:04.699Z,18.97
2022-10-15T10:44:39.840Z,19.04
2022-10-15T10:47:06.141Z,19.09
2022-10-15T10:49:35.277Z,19.14
2022-10-15T10:52:01.692Z,19.17
2022-10-15T10:54:29.078Z,19.22
2022-10-15T10:56:56.633Z,19.24
2022-10-15T10:59:41.887Z,19.28
2022-10-15T11:02:12.391Z,19.29
2022-10-15T11:04:39.430Z,19.28
2022-10-15T11:07:18.004Z,19.27
2022-10-15T11:10:12.410Z,19.28
2022-10-15T11:12:38.715Z,19.27
2022-10-15T11:15:38.538Z,19.29
2022-10-15T11:18:44.141Z,19.31
2022-10-15T11:21:50.591Z,19.40
2022-10-15T11:24:33.446Z,19.43
2022-10-15T11:27:33.514Z,19.45
2022-10-15T11:30:22.102Z,19.45
2022-10-15T11:33:13.082Z,19.42
2022-10-15T11:35:58.739Z,19.37
2022-10-15T11:38:43.489Z,19.32
2022-10-15T11:41:40.876Z,19.33
2022-10-15T11:44:13.311Z,19.35
2022-10-15T11:46:46.701Z,19.38
2022-10-15T11:49:37.971Z,19.44
2022-10-15T11:52:41.668Z,19.53
2022-10-15T11:55:18.756Z,19.62
2022-10-15T11:57:46.117Z,19.73
2022-10-15T12:00:41.220Z,19.83
2022-10-15T12:03:15.731Z,19.90
2022-10-15T12:05:50.559Z,19.95
2022-10-15T12:08:17.659Z,20.02
2022-10-15T12:11:15.299Z,20.04
2022-10-15T12:13:47.593Z,20.05
2022-10-15T12:16:21.371Z,20.12
2022-10-15T12:18:58.022Z,20.15
2022-10-15T12:21:38.893Z,20.15
2022-10-15T12:24:26.613Z,20.16
2022-10-15T12:26:54.035Z,20.15
2022-10-15T12:29:22.344Z,20.16
2022-10-15T12:31:51.054Z,20.17
2022-10-15T12:34:36.385Z,20.19
2022-10-15T12:37:18.541Z,20.22
2022-10-15T12:39:53.348Z,20.28
2022-10-15T12:42:27.598Z,20.35
2022-10-15T12:44:54.477Z,20.36
2022-10-15T12:47:45.758Z,20.37
2022-10-15T12:50:20.178Z,20.37
2022-10-15T12:52:49.505Z,20.37
2022-10-15T12:55:32.061Z,20.39
2022-10-15T12:58:32.595Z,20.38
2022-10-15T13:01:07.426Z,20.32
2022-10-15T13:03:36.519Z,20.30
2022-10-15T13:06:22.795Z,20.36
2022-10-15T13:08:56.923Z,20.41
2022-10-15T13:11:42.554Z,20.44
2022-10-15T13:14:08.900Z,20.50
2022-10-15T13:16:35.701Z,20.52
2022-10-15T13:19:03.239Z,20.54
2022-10-15T13:21:53.965Z,20.53
2022-10-15T13:24:25.652Z,20.48
2022-10-15T13:26:53.742Z,20.40
2022-10-15T13:29:23.384Z,20.36
2022-10-15T13:31:50.858Z,20.36
2022-10-15T13:34:26.453Z,20.35
2022-10-15T13:36:53.645Z,20.36
2022-10-15T13:39:26.776Z,20.39
2022-10-15T13:41:56.225Z,20.39
2022-10-15T13:44:24.261Z,20.44
2022-10-15T13:46:51.162Z,20.45
2022-10-15T13:49:18.251Z,20.41
2022-10-15T13:51:49.974Z,20.43
2022-10-15T13:54:20.596Z,20.41
2022-10-15T13:56:57.661Z,20.37
2022-10-15T13:59:25.693Z,20.37
2022-10-15T14:01:55.736Z,20.36
2022-10-15T14:04:23.158Z,20.34
2022-10-15T14:09:37.993Z,20.30
2022-10-15T14:12:08.254Z,20.29
2022-10-15T14:14:35.766Z,20.27
2022-10-15T14:17:12.995Z,20.26
2022-10-15T14:19:39.719Z,20.23
2022-10-15T14:22:06.532Z,20.20
2022-10-15T14:24:35.220Z,20.17
2022-10-15T14:27:14.812Z,20.20
2022-10-15T14:29:46.305Z,20.18
2022-10-15T14:32:32.362Z,20.17
2022-10-15T14:35:00.191Z,20.19
2022-10-15T14:37:35.600Z,20.18
2022-10-15T14:40:13.881Z,20.13
2022-10-15T14:42:46.067Z,20.12
2022-10-15T14:45:18.541Z,20.11
2022-10-15T14:47:47.451Z,20.11
2022-10-15T14:50:14.140Z,20.09
2022-10-15T14:52:47.893Z,20.07
2022-10-15T14:55:16.128Z,20.08
2022-10-15T14:57:44.195Z,20.06
2022-10-15T15:00:29.483Z,20.05
2022-10-15T15:02:57.336Z,20.04
2022-10-15T15:05:28.097Z,20.02
2022-10-15T15:07:56.772Z,20.03
2022-10-15T15:10:24.687Z,20.01
2022-10-15T15:12:56.568Z,19.98
2022-10-15T15:15:24.929Z,19.96
2022-10-15T15:17:54.351Z,19.94
2022-10-15T15:20:21.498Z,19.90
2022-10-15T15:22:50.263Z,19.89
2022-10-15T15:25:22.629Z,19.87
2022-10-15T15:27:49.054Z,19.86
2022-10-15T15:30:19.146Z,19.84
2022-10-15T15:32:45.969Z,19.81
2022-10-15T15:35:27.013Z,19.80
2022-10-15T15:37:53.432Z,19.78
2022-10-15T15:40:20.035Z,19.76
2022-10-15T15:42:46.947Z,19.73
2022-10-15T15:45:21.260Z,19.70
2022-10-15T15:47:48.036Z,19.67
2022-10-15T15:50:15.004Z,19.64
2022-10-15T15:52:43.571Z,19.61
2022-10-15T15:55:10.872Z,19.56
2022-10-15T15:57:37.364Z,19.53
2022-10-15T16:00:06.302Z,19.50
2022-10-15T16:02:33.586Z,19.45
2022-10-15T16:05:01.732Z,19.45
2022-10-15T16:07:29.636Z,19.41
2022-10-15T16:09:56.330Z,19.39
2022-10-15T16:12:22.738Z,19.35
2022-10-15T16:14:49.226Z,19.33
2022-10-15T16:17:15.680Z,19.31
2022-10-15T16:19:42.169Z,19.27
2022-10-15T16:22:08.550Z,19.25
2022-10-15T16:24:35.706Z,19.24
2022-10-15T16:27:02.165Z,19.21
2022-10-15T16:29:28.581Z,19.20
2022-10-15T16:31:55.004Z,19.19
2022-10-15T16:34:21.425Z,19.16
2022-10-15T16:36:47.823Z,19.15
2022-10-15T16:39:14.224Z,19.15
2022-10-15T16:41:40.628Z,19.13
2022-10-15T16:44:07.194Z,19.13
2022-10-15T16:46:33.670Z,19.12
2022-10-15T16:49:00.135Z,19.12
2022-10-15T16:51:26.807Z,19.10
2022-10-15T16:53:54.705Z,19.09
2022-10-15T16:56:23.389Z,19.07
2022-10-15T16:58:50.211Z,19.07
2022-10-15T17:01:19.267Z,19.04
2022-10-15T17:03:46.075Z,19.03
2022-10-15T17:06:16.040Z,19.01
2022-10-15T17:08:46.112Z,18.99
2022-10-15T17:11:21.575Z,18.97
2022-10-15T17:13:49.529Z,18.93
2022-10-15T17:16:24.918Z,18.91
2022-10-15T17:21:25.897Z,18.89
2022-10-15T17:23:54.000Z,18.87
2022-10-15T17:26:22.543Z,18.88
2022-10-15T17:28:49.560Z,18.86
2022-10-15T17:31:18.911Z,18.84
2022-10-15T17:33:45.805Z,18.82
2022-10-15T17:36:17.078Z,18.81
2022-10-15T17:38:44.763Z,18.79
2022-10-15T17:41:13.789Z,18.77
2022-10-15T17:43:40.435Z,18.76
2022-10-15T17:46:17.966Z,18.73
2022-10-15T17:48:44.644Z,18.72
2022-10-15T17:51:14.245Z,18.71
2022-10-15T17:53:41.595Z,18.69
2022-10-15T17:56:11.106Z,18.67
2022-10-15T17:58:37.914Z,18.66
2022-10-15T18:01:04.440Z,18.64
2022-10-15T18:03:30.987Z,18.61
2022-10-15T18:05:57.380Z,18.60
2022-10-15T18:08:24.080Z,18.59
2022-10-15T18:10:52.163Z,18.60
2022-10-15T18:13:18.967Z,18.59
2022-10-15T18:15:47.703Z,18.59
2022-10-15T18:18:14.815Z,18.53
2022-10-15T18:20:42.093Z,18.56
2022-10-15T18:23:09.018Z,18.55
2022-10-15T18:25:35.507Z,18.57
2022-10-15T18:28:01.956Z,18.57
2022-10-15T18:30:29.381Z,18.56
2022-10-15T18:32:58.044Z,18.55
2022-10-15T18:35:25.419Z,18.53
2022-10-15T18:37:51.841Z,18.53
2022-10-15T18:40:18.302Z,18.53
2022-10-15T18:42:47.675Z,18.52
2022-10-15T18:45:14.452Z,18.52
2022-10-15T18:47:40.849Z,18.50
2022-10-15T18:50:07.866Z,18.51
2022-10-15T18:52:39.945Z,18.52
2022-10-15T18:55:07.737Z,18.51
2022-10-15T18:57:34.786Z,18.49
2022-10-15T19:00:01.287Z,18.48
2022-10-15T19:02:28.084Z,18.47
2022-10-15T19:04:54.625Z,18.47
2022-10-15T19:07:21.049Z,18.46
2022-10-15T19:09:47.472Z,18.46
2022-10-15T19:12:13.909Z,18.45
2022-10-15T19:14:40.319Z,18.44
2022-10-15T19:17:06.720Z,18.42
2022-10-15T19:19:33.207Z,18.41
2022-10-15T19:21:59.642Z,18.40
2022-10-15T19:24:26.162Z,18.37
2022-10-15T19:26:52.658Z,18.34
2022-10-15T19:29:19.754Z,18.31
2022-10-15T19:31:47.749Z,18.30
2022-10-15T19:34:14.814Z,18.28
2022-10-15T19:36:46.325Z,18.25
2022-10-15T19:39:15.432Z,18.23
2022-10-15T19:41:42.906Z,18.22
2022-10-15T19:44:11.273Z,18.18
2022-10-15T19:46:37.848Z,18.16
2022-10-15T19:49:08.862Z,18.15
2022-10-15T19:51:35.504Z,18.13
2022-10-15T19:54:02.161Z,18.11
2022-10-15T19:56:28.739Z,18.10
2022-10-15T19:58:59.763Z,18.05
2022-10-15T20:01:27.703Z,18.04
2022-10-15T20:03:54.384Z,18.02
2022-10-15T20:06:21.250Z,18.01
2022-10-15T20:08:47.866Z,17.99
2022-10-15T20:11:14.290Z,17.98
2022-10-15T20:13:40.703Z,17.96
2022-10-15T20:16:08.957Z,17.93
2022-10-15T20:18:35.895Z,17.91
2022-10-15T20:21:15.988Z,17.91
2022-10-15T20:23:43.272Z,17.88
2022-10-15T20:26:13.110Z,17.87
2022-10-15T20:28:41.498Z,17.83
2022-10-15T20:31:10.142Z,17.82
2022-10-15T20:33:36.749Z,17.81
2022-10-15T20:36:07.667Z,17.80
2022-10-15T20:38:35.038Z,17.76
2022-10-15T20:41:16.122Z,17.74
2022-10-15T20:43:43.998Z,17.71
2022-10-15T20:46:13.362Z,17.71
2022-10-15T20:48:41.538Z,17.69
2022-10-15T20:51:09.365Z,17.68
2022-10-15T20:53:35.872Z,17.66
2022-10-15T20:56:02.445Z,17.66
2022-10-15T20:58:29.311Z,17.64
2022-10-15T21:00:55.950Z,17.63
2022-10-15T21:03:22.437Z,17.61
2022-10-15T21:05:48.829Z,17.61
2022-10-15T21:08:15.329Z,17.60
2022-10-15T21:10:41.829Z,17.58
2022-10-15T21:13:08.256Z,17.56
2022-10-15T21:15:34.685Z,17.56
2022-10-15T21:18:01.086Z,17.53
2022-10-15T21:20:27.573Z,17.52
2022-10-15T21:22:53.987Z,17.51
2022-10-15T21:25:20.430Z,17.47
2022-10-15T21:27:46.834Z,17.45
2022-10-15T21:30:13.277Z,17.43
2022-10-15T21:32:39.744Z,17.41
2022-10-15T21:35:06.541Z,17.38
2022-10-15T21:37:37.094Z,17.37
2022-10-15T21:40:04.949Z,17.36
2022-10-15T21:42:31.337Z,17.34
2022-10-15T21:44:58.305Z,17.31
2022-10-15T21:47:25.546Z,17.29
2022-10-15T21:49:52.139Z,17.29
2022-10-15T21:52:18.552Z,17.28
2022-10-15T21:54:45.007Z,17.27
2022-10-15T21:57:11.516Z,17.25
2022-10-15T21:59:37.936Z,17.24
2022-10-15T22:02:04.494Z,17.23
2022-10-15T22:04:34.563Z,17.23
2022-10-15T22:07:01.189Z,17.21
2022-10-15T22:09:27.654Z,17.20
2022-10-15T22:11:54.421Z,17.19
2022-10-15T22:14:20.822Z,17.18
2022-10-15T22:16:47.226Z,17.18
2022-10-15T22:19:14.664Z,17.18
2022-10-15T22:21:41.083Z,17.19
2022-10-15T22:24:14.027Z,17.19
2022-10-15T22:26:43.883Z,17.17
2022-10-15T22:29:17.431Z,17.18
2022-10-15T22:31:43.965Z,17.18
2022-10-15T22:34:10.492Z,17.18
2022-10-15T22:36:36.905Z,17.20
2022-10-15T22:39:05.607Z,17.22
2022-10-15T22:41:39.548Z,17.23
2022-10-15T22:44:12.301Z,17.24
2022-10-15T22:46:39.034Z,17.25
2022-10-15T22:49:06.946Z,17.23
2022-10-15T22:51:33.580Z,17.22
2022-10-15T22:54:00.521Z,17.20
2022-10-15T22:56:27.907Z,17.19
2022-10-15T22:58:56.817Z,17.22
2022-10-15T23:01:25.969Z,17.22
2022-10-15T23:03:54.664Z,17.24
2022-10-15T23:06:21.909Z,17.25
2022-10-15T23:08:48.841Z,17.25
2022-10-15T23:11:18.598Z,17.26
2022-10-15T23:13:45.792Z,17.27
2022-10-15T23:16:18.448Z,17.27
2022-10-15T23:18:46.536Z,17.25
2022-10-15T23:21:18.478Z,17.24
2022-10-15T23:23:45.637Z,17.24
2022-10-15T23:26:14.154Z,17.22
2022-10-15T23:28:41.139Z,17.19
2022-10-15T23:31:07.690Z,17.16
2022-10-15T23:33:34.097Z,17.14
2022-10-15T23:36:03.230Z,17.09
2022-10-15T23:38:30.046Z,17.06
2022-10-15T23:41:04.106Z,17.03
2022-10-15T23:43:30.532Z,17.01
2022-10-15T23:45:57.600Z,16.99
2022-10-15T23:48:24.147Z,16.97
2022-10-15T23:50:50.777Z,16.95
2022-10-15T23:53:17.285Z,16.94
2022-10-15T23:55:43.791Z,16.92
2022-10-15T23:58:10.966Z,16.91
